Time;durP1;ratioP1;P1;durP2;ratioP2;P2;SDS_P1;SDS_P2;PMS_P1;PMS_P2;Temp;Humidity;BMP_temperature;BMP_pressure;BME280_temperature;BME280_humidity;BME280_pressure;Samples;Min_cycle;Max_cycle;Signal;HPM_P1;HPM_P2
2023/01/31 00:00:11;;;;;;;;;;;3.40;99.90;;;;;;5014623;28;19921;-80
2023/01/31 00:02:36;;;;;;;;;;;3.40;99.90;;;;;;5011696;28;19944;-79
2023/01/31 00:05:02;;;;;;;;;;;3.40;99.90;;;;;;5014955;28;19913;-78
2023/01/31 00:07:28;;;;;;;;;;;3.40;99.90;;;;;;5005326;28;19921;-80
2023/01/31 00:09:53;;;;;;;;;;;3.30;99.90;;;;;;5015653;28;19909;-79
2023/01/31 00:12:19;;;;;;;;;;;3.30;99.90;;;;;;5011843;28;19909;-79
2023/01/31 00:14:44;;;;;;;;;;;3.40;99.90;;;;;;5005347;28;19909;-79
2023/01/31 00:17:10;;;;;;;;;;;3.40;99.90;;;;;;5015775;28;19991;-79
2023/01/31 00:19:35;;;;;;;;;;;3.30;99.90;;;;;;5011739;28;19927;-79
2023/01/31 00:22:01;;;;;;;;;;;3.40;99.90;;;;;;5005033;28;20369;-78
2023/01/31 00:24:27;;;;;;;;;;;3.50;99.90;;;;;;5017021;28;20012;-81
2023/01/31 00:26:55;;;;;;;;;;;3.40;99.90;;;;;;5017175;28;19916;-81
2023/01/31 00:29:21;;;;;;;;;;;3.30;99.90;;;;;;5010686;28;19988;-79
2023/01/31 00:31:47;;;;;;;;;;;3.40;99.90;;;;;;5015114;28;19911;-78
2023/01/31 00:34:12;;;;;;;;;;;3.40;99.90;;;;;;5009251;28;19913;-77
2023/01/31 00:36:38;;;;;;;;;;;3.30;99.90;;;;;;5011717;28;20465;-79
2023/01/31 00:39:05;;;;;;;;;;;3.30;99.90;;;;;;5013672;28;19924;-79
2023/01/31 00:41:31;;;;;;;;;;;3.20;99.90;;;;;;5015374;28;20751;-79
2023/01/31 00:43:57;;;;;;;;;;;3.30;99.90;;;;;;5016689;28;19913;-79
2023/01/31 00:46:22;;;;;;;;;;;3.40;99.90;;;;;;5019153;28;19924;-77
2023/01/31 00:48:48;;;;;;;;;;;3.40;99.90;;;;;;5016504;28;19913;-78
2023/01/31 00:51:14;;;;;;;;;;;3.40;99.90;;;;;;5014718;28;19913;-78
2023/01/31 00:53:40;;;;;;;;;;;3.40;99.90;;;;;;5016412;28;19920;-78
2023/01/31 00:56:07;;;;;;;;;;;3.30;99.90;;;;;;5017991;28;19913;-78
2023/01/31 00:58:33;;;;;;;;;;;3.40;99.90;;;;;;5020798;28;20002;-78
2023/01/31 01:01:09;;;;;;;;;;;3.30;99.90;;;;;;5010167;28;19921;-81
2023/01/31 01:03:35;;;;;;;;;;;3.30;99.90;;;;;;5008359;28;19909;-79
2023/01/31 01:06:00;;;;;;;;;;;3.40;99.90;;;;;;5008431;28;19910;-79
2023/01/31 01:08:27;;;;;;;;;;;3.40;99.90;;;;;;5015523;28;19928;-80
2023/01/31 01:10:52;;;;;;;;;;;3.40;99.90;;;;;;5013950;28;19917;-79
2023/01/31 01:13:18;;;;;;;;;;;3.50;99.90;;;;;;4992569;28;19916;-80
2023/01/31 01:15:43;;;;;;;;;;;3.40;99.90;;;;;;5016917;28;20376;-79
2023/01/31 01:18:09;;;;;;;;;;;3.40;99.90;;;;;;5006568;28;19913;-79
2023/01/31 01:20:35;;;;;;;;;;;3.40;99.90;;;;;;5011723;28;19921;-79
2023/01/31 01:23:00;;;;;;;;;;;3.40;99.90;;;;;;5014273;28;19917;-81
2023/01/31 01:25:26;;;;;;;;;;;3.40;99.90;;;;;;5018147;28;19920;-80
2023/01/31 01:27:51;;;;;;;;;;;3.40;99.90;;;;;;5010628;28;19916;-78
2023/01/31 01:30:17;;;;;;;;;;;3.40;99.90;;;;;;5009541;28;20008;-79
2023/01/31 01:32:43;;;;;;;;;;;3.30;99.90;;;;;;5009605;28;20040;-79
2023/01/31 01:35:09;;;;;;;;;;;3.30;99.90;;;;;;5010150;28;20439;-82
2023/01/31 01:37:34;;;;;;;;;;;3.20;99.90;;;;;;5016531;28;19916;-80
2023/01/31 01:40:00;;;;;;;;;;;3.20;99.90;;;;;;5014648;28;19917;-80
2023/01/31 01:42:26;;;;;;;;;;;3.20;99.90;;;;;;5010571;28;19913;-79
2023/01/31 01:44:52;;;;;;;;;;;3.20;99.90;;;;;;5020797;28;19909;-79
2023/01/31 01:47:17;;;;;;;;;;;3.20;99.90;;;;;;5022041;28;19913;-79
2023/01/31 01:49:45;;;;;;;;;;;3.20;99.90;;;;;;5003280;28;19916;-79
2023/01/31 01:52:11;;;;;;;;;;;3.10;99.90;;;;;;5012701;28;19967;-78
2023/01/31 01:54:41;;;;;;;;;;;3.10;99.90;;;;;;5009386;28;19916;-80
2023/01/31 01:57:07;;;;;;;;;;;3.20;99.90;;;;;;5005624;28;19910;-80
2023/01/31 01:59:36;;;;;;;;;;;3.10;99.90;;;;;;5011060;28;19925;-80
2023/01/31 02:02:02;;;;;;;;;;;3.20;99.90;;;;;;5009097;28;20457;-79
2023/01/31 02:04:30;;;;;;;;;;;3.20;99.90;;;;;;5005690;28;19959;-79
2023/01/31 02:06:56;;;;;;;;;;;3.20;99.90;;;;;;5008164;28;19905;-79
2023/01/31 02:09:29;;;;;;;;;;;3.10;99.90;;;;;;5006623;28;19920;-79
2023/01/31 02:11:54;;;;;;;;;;;3.20;99.90;;;;;;5015244;28;19959;-80
2023/01/31 02:14:20;;;;;;;;;;;3.20;99.90;;;;;;5012318;28;20372;-80
2023/01/31 02:16:45;;;;;;;;;;;3.10;99.90;;;;;;5009779;28;20391;-79
2023/01/31 02:19:30;;;;;;;;;;;3.10;99.90;;;;;;5002350;28;19909;-78
2023/01/31 02:21:55;;;;;;;;;;;3.10;99.90;;;;;;5012114;28;19927;-79
2023/01/31 02:24:30;;;;;;;;;;;3.00;99.90;;;;;;5011808;28;19917;-78
2023/01/31 02:27:05;;;;;;;;;;;3.10;99.90;;;;;;5014903;28;20004;-78
2023/01/31 02:29:39;;;;;;;;;;;3.10;99.90;;;;;;5018022;28;19916;-77
2023/01/31 02:32:26;;;;;;;;;;;3.00;99.90;;;;;;5016525;28;19909;-80
2023/01/31 02:34:56;;;;;;;;;;;3.00;99.90;;;;;;5004401;28;19909;-80
2023/01/31 02:37:24;;;;;;;;;;;3.10;99.90;;;;;;5009889;28;19910;-81
2023/01/31 02:40:08;;;;;;;;;;;3.10;99.90;;;;;;5018225;28;19940;-79
2023/01/31 02:42:42;;;;;;;;;;;3.10;99.90;;;;;;5016540;28;19928;-81
2023/01/31 02:45:22;;;;;;;;;;;3.10;99.90;;;;;;5016596;28;19917;-79
2023/01/31 02:47:57;;;;;;;;;;;3.10;99.90;;;;;;5009607;28;19909;-81
2023/01/31 02:50:27;;;;;;;;;;;3.20;99.90;;;;;;4998524;28;19913;-79
2023/01/31 02:53:05;;;;;;;;;;;3.20;99.90;;;;;;5014228;28;20292;-78
2023/01/31 02:58:21;;;;;;;;;;;3.10;99.90;;;;;;5009969;28;19928;-79
2023/01/31 03:00:48;;;;;;;;;;;3.10;99.90;;;;;;5011872;28;19921;-79
2023/01/31 03:03:40;;;;;;;;;;;3.10;99.90;;;;;;5009429;28;19940;-82
2023/01/31 03:06:10;;;;;;;;;;;3.10;99.90;;;;;;5011871;28;19909;-81
2023/01/31 03:08:37;;;;;;;;;;;3.10;99.90;;;;;;5019449;28;19910;-79
2023/01/31 03:11:04;;;;;;;;;;;3.20;99.90;;;;;;5018066;28;19913;-80
2023/01/31 03:13:33;;;;;;;;;;;3.10;99.90;;;;;;5020136;28;19909;-81
2023/01/31 03:18:58;;;;;;;;;;;3.10;99.90;;;;;;5013352;28;19970;-79
2023/01/31 03:21:38;;;;;;;;;;;3.10;99.90;;;;;;5011848;28;19921;-79
2023/01/31 03:24:04;;;;;;;;;;;2.80;99.90;;;;;;5009671;28;19917;-79
2023/01/31 03:26:30;;;;;;;;;;;2.90;99.90;;;;;;5009755;28;19931;-80
2023/01/31 03:28:57;;;;;;;;;;;2.90;99.90;;;;;;5016260;28;20379;-82
2023/01/31 03:31:22;;;;;;;;;;;2.90;99.90;;;;;;5019390;28;19924;-80
2023/01/31 03:33:54;;;;;;;;;;;3.00;99.90;;;;;;5014990;28;19908;-81
2023/01/31 03:36:29;;;;;;;;;;;3.00;99.90;;;;;;5018617;28;19913;-79
2023/01/31 03:38:57;;;;;;;;;;;3.00;99.90;;;;;;5015904;28;20365;-82
2023/01/31 03:41:28;;;;;;;;;;;3.00;99.90;;;;;;5014787;28;20023;-80
2023/01/31 03:43:59;;;;;;;;;;;3.00;99.90;;;;;;5014012;28;20273;-81
2023/01/31 03:46:29;;;;;;;;;;;3.10;99.90;;;;;;5013749;28;19909;-81
2023/01/31 03:48:57;;;;;;;;;;;3.10;99.90;;;;;;5007011;28;19909;-79
2023/01/31 03:51:26;;;;;;;;;;;3.10;99.90;;;;;;5006503;28;19909;-79
2023/01/31 03:53:53;;;;;;;;;;;3.10;99.90;;;;;;5008219;28;19911;-79
2023/01/31 03:56:21;;;;;;;;;;;3.00;99.90;;;;;;5019112;28;19905;-79
2023/01/31 03:58:49;;;;;;;;;;;3.10;99.90;;;;;;5007209;28;20000;-83
2023/01/31 04:01:17;;;;;;;;;;;3.10;99.90;;;;;;5010944;28;20523;-80
2023/01/31 04:03:44;;;;;;;;;;;3.00;99.90;;;;;;5008923;28;19992;-83
2023/01/31 04:06:11;;;;;;;;;;;3.00;99.90;;;;;;5011720;28;20023;-79
2023/01/31 04:08:37;;;;;;;;;;;3.10;99.90;;;;;;5016117;28;20039;-80
2023/01/31 04:11:03;;;;;;;;;;;3.10;99.90;;;;;;5008629;28;20008;-80
2023/01/31 04:13:29;;;;;;;;;;;3.10;99.90;;;;;;5008426;28;19917;-79
2023/01/31 04:15:54;;;;;;;;;;;3.10;99.90;;;;;;5008695;28;19910;-79
2023/01/31 04:18:20;;;;;;;;;;;3.10;99.90;;;;;;5008749;28;19909;-79
2023/01/31 04:20:46;;;;;;;;;;;3.10;99.90;;;;;;5004719;28;20032;-78
2023/01/31 04:23:11;;;;;;;;;;;3.00;99.90;;;;;;5012203;28;19920;-79
2023/01/31 04:25:37;;;;;;;;;;;3.00;99.90;;;;;;5004512;28;20016;-79
2023/01/31 04:28:03;;;;;;;;;;;3.10;99.90;;;;;;5004853;28;20004;-80
2023/01/31 04:30:29;;;;;;;;;;;3.10;99.90;;;;;;5011646;28;19983;-82
2023/01/31 04:32:54;;;;;;;;;;;3.00;99.90;;;;;;5010592;28;20440;-82
2023/01/31 04:35:20;;;;;;;;;;;2.90;99.90;;;;;;5014451;28;19909;-79
2023/01/31 04:37:45;;;;;;;;;;;2.90;99.90;;;;;;5010464;28;19909;-80
2023/01/31 04:40:13;;;;;;;;;;;2.90;99.90;;;;;;5014429;28;19917;-80
2023/01/31 04:42:39;;;;;;;;;;;2.90;99.90;;;;;;5009811;28;19913;-81
2023/01/31 04:45:04;;;;;;;;;;;3.00;99.90;;;;;;5017593;28;19916;-81
2023/01/31 04:47:30;;;;;;;;;;;3.00;99.90;;;;;;5016253;28;19913;-79
2023/01/31 04:49:56;;;;;;;;;;;3.10;99.90;;;;;;5014007;28;20015;-79
2023/01/31 04:52:23;;;;;;;;;;;3.10;99.90;;;;;;5010127;28;19909;-80
2023/01/31 04:54:48;;;;;;;;;;;3.00;99.90;;;;;;5010910;28;19915;-81
2023/01/31 04:57:14;;;;;;;;;;;3.10;99.90;;;;;;5017363;28;20292;-80
2023/01/31 04:59:40;;;;;;;;;;;3.10;99.90;;;;;;5011995;28;19921;-79
2023/01/31 05:02:05;;;;;;;;;;;3.20;99.90;;;;;;5019283;28;19998;-80
2023/01/31 05:04:31;;;;;;;;;;;3.10;99.90;;;;;;5014570;28;19909;-79
2023/01/31 05:06:57;;;;;;;;;;;3.10;99.90;;;;;;5015496;28;19916;-78
2023/01/31 05:09:23;;;;;;;;;;;3.00;99.90;;;;;;5008608;28;19917;-80
2023/01/31 05:11:49;;;;;;;;;;;3.10;99.90;;;;;;5009736;28;19913;-80
2023/01/31 05:14:15;;;;;;;;;;;3.10;99.90;;;;;;5013292;28;19916;-78
2023/01/31 05:16:44;;;;;;;;;;;3.00;99.90;;;;;;5010443;28;20125;-78
2023/01/31 05:19:10;;;;;;;;;;;3.10;99.90;;;;;;5012776;28;19909;-79
2023/01/31 05:21:53;;;;;;;;;;;3.10;99.90;;;;;;5007857;28;19928;-79
2023/01/31 05:24:22;;;;;;;;;;;3.00;99.90;;;;;;5008414;28;20462;-80
2023/01/31 05:26:49;;;;;;;;;;;3.10;99.90;;;;;;5015244;28;19905;-79
2023/01/31 05:29:15;;;;;;;;;;;3.10;99.90;;;;;;5010291;28;19909;-80
2023/01/31 05:31:40;;;;;;;;;;;3.10;99.90;;;;;;5008913;28;19909;-78
2023/01/31 05:34:07;;;;;;;;;;;3.10;99.90;;;;;;5009814;28;20357;-79
2023/01/31 05:36:33;;;;;;;;;;;3.10;99.90;;;;;;5014666;28;19913;-81
2023/01/31 05:38:58;;;;;;;;;;;3.10;99.90;;;;;;5011944;28;19913;-80
2023/01/31 05:41:24;;;;;;;;;;;3.10;99.90;;;;;;5005700;28;19913;-84
2023/01/31 05:43:49;;;;;;;;;;;2.90;99.90;;;;;;5011625;28;19913;-82
2023/01/31 05:46:15;;;;;;;;;;;3.00;99.90;;;;;;5011334;28;19909;-78
2023/01/31 05:48:41;;;;;;;;;;;3.00;99.90;;;;;;5003332;28;19913;-79
2023/01/31 05:51:06;;;;;;;;;;;3.00;99.90;;;;;;5007348;28;19908;-79
2023/01/31 05:53:32;;;;;;;;;;;3.00;99.90;;;;;;5017997;28;19913;-80
2023/01/31 05:55:57;;;;;;;;;;;3.10;99.90;;;;;;4999004;28;19909;-80
2023/01/31 05:58:23;;;;;;;;;;;3.10;99.90;;;;;;5010179;28;19909;-82
2023/01/31 06:00:49;;;;;;;;;;;2.90;99.90;;;;;;5005634;28;20483;-83
2023/01/31 06:03:14;;;;;;;;;;;2.90;99.90;;;;;;5013660;28;19919;-82
2023/01/31 06:05:40;;;;;;;;;;;2.90;99.90;;;;;;5015934;28;19916;-80
2023/01/31 06:08:06;;;;;;;;;;;3.00;99.90;;;;;;5016691;28;19912;-82
2023/01/31 06:10:31;;;;;;;;;;;3.10;99.90;;;;;;5002079;28;19914;-79
2023/01/31 06:12:57;;;;;;;;;;;3.00;99.90;;;;;;5004670;28;19905;-80
2023/01/31 06:15:22;;;;;;;;;;;3.10;99.90;;;;;;5018811;28;19921;-80
2023/01/31 06:17:48;;;;;;;;;;;3.10;99.90;;;;;;5026295;28;20710;-81
2023/01/31 06:20:14;;;;;;;;;;;3.10;99.90;;;;;;5013096;28;20366;-82
2023/01/31 06:22:40;;;;;;;;;;;3.10;99.90;;;;;;5022450;28;19936;-80
2023/01/31 06:25:06;;;;;;;;;;;3.00;99.90;;;;;;5019058;28;20013;-83
2023/01/31 06:27:32;;;;;;;;;;;3.00;99.90;;;;;;5015881;28;20000;-81
2023/01/31 06:29:57;;;;;;;;;;;2.90;99.90;;;;;;5018085;28;19920;-81
2023/01/31 06:32:23;;;;;;;;;;;2.80;99.90;;;;;;5023025;28;19913;-81
2023/01/31 06:34:48;;;;;;;;;;;2.90;99.90;;;;;;5012979;28;20360;-84
2023/01/31 06:37:14;;;;;;;;;;;2.90;99.90;;;;;;5023611;28;19909;-82
2023/01/31 06:39:40;;;;;;;;;;;2.80;99.90;;;;;;5025553;28;19913;-82
2023/01/31 06:42:06;;;;;;;;;;;2.80;99.90;;;;;;5022409;28;19913;-80
2023/01/31 06:44:32;;;;;;;;;;;2.80;99.90;;;;;;5017794;28;20364;-80
2023/01/31 06:46:58;;;;;;;;;;;2.80;99.90;;;;;;5019337;28;19963;-82
2023/01/31 06:49:24;;;;;;;;;;;2.80;99.90;;;;;;5025422;28;19920;-85
2023/01/31 06:51:49;;;;;;;;;;;3.00;99.90;;;;;;5018842;28;19912;-79
2023/01/31 06:54:15;;;;;;;;;;;2.90;99.90;;;;;;5011411;28;19920;-80
2023/01/31 06:56:40;;;;;;;;;;;2.90;99.90;;;;;;5009016;28;20655;-79
2023/01/31 06:59:06;;;;;;;;;;;2.90;99.90;;;;;;5014127;28;19915;-80
2023/01/31 07:01:31;;;;;;;;;;;2.90;99.90;;;;;;5014708;28;20551;-77
2023/01/31 07:03:57;;;;;;;;;;;2.80;99.90;;;;;;5016986;28;19936;-79
2023/01/31 07:06:23;;;;;;;;;;;3.00;99.90;;;;;;5018262;28;19913;-78
2023/01/31 07:08:48;;;;;;;;;;;2.90;99.90;;;;;;5009010;28;19910;-78
2023/01/31 07:11:14;;;;;;;;;;;2.80;99.90;;;;;;5011815;28;20008;-79
2023/01/31 07:13:40;;;;;;;;;;;2.90;99.90;;;;;;5014741;28;20694;-77
2023/01/31 07:16:05;;;;;;;;;;;3.00;99.90;;;;;;5018020;28;20399;-77
2023/01/31 07:18:31;;;;;;;;;;;3.00;99.90;;;;;;5014682;28;19912;-78
2023/01/31 07:20:56;;;;;;;;;;;2.90;99.90;;;;;;5015649;28;19975;-79
2023/01/31 07:23:22;;;;;;;;;;;2.80;99.90;;;;;;5005570;28;19925;-78
2023/01/31 07:25:48;;;;;;;;;;;2.80;99.90;;;;;;5013446;28;19920;-78
2023/01/31 07:28:13;;;;;;;;;;;2.90;99.90;;;;;;5011404;28;19909;-78
2023/01/31 07:30:42;;;;;;;;;;;2.80;99.90;;;;;;5011825;28;20460;-79
2023/01/31 07:33:09;;;;;;;;;;;2.90;99.90;;;;;;5017819;28;19909;-77
2023/01/31 07:35:34;;;;;;;;;;;3.00;99.90;;;;;;4992204;28;20450;-77
2023/01/31 07:38:00;;;;;;;;;;;3.00;99.90;;;;;;5012266;28;19913;-78
2023/01/31 07:40:26;;;;;;;;;;;3.10;99.90;;;;;;5022783;28;19925;-78
2023/01/31 07:42:56;;;;;;;;;;;3.00;99.90;;;;;;5014932;28;19913;-77
2023/01/31 07:45:21;;;;;;;;;;;3.10;99.90;;;;;;5019278;28;19940;-76
2023/01/31 07:47:47;;;;;;;;;;;3.10;99.90;;;;;;5009651;28;20056;-77
2023/01/31 07:50:13;;;;;;;;;;;3.10;99.90;;;;;;5006575;28;19913;-78
2023/01/31 07:52:39;;;;;;;;;;;3.10;99.90;;;;;;5009862;28;19917;-79
2023/01/31 07:55:04;;;;;;;;;;;3.20;99.90;;;;;;5012868;28;20378;-80
2023/01/31 07:57:31;;;;;;;;;;;3.20;99.90;;;;;;5007650;28;19909;-77
2023/01/31 07:59:56;;;;;;;;;;;3.30;99.90;;;;;;5007992;28;19924;-77
2023/01/31 08:05:07;;;;;;;;;;;3.30;99.90;;;;;;5008139;28;19987;-77
2023/01/31 08:07:33;;;;;;;;;;;3.40;99.90;;;;;;4987078;28;19967;-78
2023/01/31 08:09:58;;;;;;;;;;;3.40;99.90;;;;;;5003038;28;19909;-77
2023/01/31 08:12:24;;;;;;;;;;;3.40;99.90;;;;;;5004580;28;20648;-77
2023/01/31 08:14:50;;;;;;;;;;;3.40;99.90;;;;;;5006973;28;19920;-78
2023/01/31 08:17:15;;;;;;;;;;;3.50;99.90;;;;;;5005064;28;19913;-79
2023/01/31 08:19:41;;;;;;;;;;;3.60;99.90;;;;;;5017015;28;20014;-78
2023/01/31 08:22:06;;;;;;;;;;;3.70;99.90;;;;;;5005565;28;19933;-78
2023/01/31 08:24:32;;;;;;;;;;;3.70;99.90;;;;;;5004776;28;19940;-78
2023/01/31 08:26:58;;;;;;;;;;;3.70;99.90;;;;;;5016793;28;19959;-78
2023/01/31 08:29:24;;;;;;;;;;;3.80;99.90;;;;;;5016212;28;19909;-79
2023/01/31 08:31:50;;;;;;;;;;;3.90;99.90;;;;;;5010287;28;19916;-80
2023/01/31 08:34:15;;;;;;;;;;;4.00;99.90;;;;;;5012667;28;20680;-77
2023/01/31 08:36:41;;;;;;;;;;;4.00;99.90;;;;;;5015062;28;19946;-77
2023/01/31 08:39:07;;;;;;;;;;;4.00;99.90;;;;;;5007187;28;19909;-78
2023/01/31 08:41:33;;;;;;;;;;;4.00;99.90;;;;;;5008975;28;19918;-78
2023/01/31 08:43:59;;;;;;;;;;;4.00;99.90;;;;;;5006017;28;19917;-80
2023/01/31 08:46:29;;;;;;;;;;;4.10;99.90;;;;;;5012753;28;19910;-77
2023/01/31 08:48:55;;;;;;;;;;;4.10;99.90;;;;;;5004386;28;19910;-78
2023/01/31 08:51:21;;;;;;;;;;;4.10;99.90;;;;;;5010418;28;19916;-77
2023/01/31 08:53:47;;;;;;;;;;;4.00;99.90;;;;;;5007888;28;19939;-78
2023/01/31 08:56:13;;;;;;;;;;;4.00;99.90;;;;;;5005914;28;19920;-79
2023/01/31 08:58:40;;;;;;;;;;;3.90;99.90;;;;;;5008174;28;19920;-78
2023/01/31 09:01:07;;;;;;;;;;;4.00;99.90;;;;;;5009669;28;19933;-78
2023/01/31 09:03:33;;;;;;;;;;;4.00;99.90;;;;;;5011880;28;19919;-79
2023/01/31 09:05:59;;;;;;;;;;;4.00;99.90;;;;;;5010457;28;19913;-78
2023/01/31 09:08:25;;;;;;;;;;;4.00;99.90;;;;;;5005420;28;19956;-80
2023/01/31 09:10:51;;;;;;;;;;;4.10;99.90;;;;;;5016379;28;19909;-77
2023/01/31 09:13:17;;;;;;;;;;;4.10;99.90;;;;;;5007887;28;19916;-77
2023/01/31 09:15:42;;;;;;;;;;;4.20;99.90;;;;;;5007343;28;20332;-77
2023/01/31 09:18:08;;;;;;;;;;;4.30;99.90;;;;;;5006628;28;19913;-77
2023/01/31 09:20:34;;;;;;;;;;;4.40;99.90;;;;;;5005265;28;19925;-80
2023/01/31 09:22:59;;;;;;;;;;;4.40;99.90;;;;;;5002352;28;19921;-78
2023/01/31 09:25:25;;;;;;;;;;;4.60;99.90;;;;;;4997036;28;20004;-80
2023/01/31 09:27:51;;;;;;;;;;;4.70;99.90;;;;;;5005069;28;19917;-78
2023/01/31 09:30:17;;;;;;;;;;;5.00;99.90;;;;;;4999403;28;19913;-79
2023/01/31 09:32:43;;;;;;;;;;;5.10;99.90;;;;;;5004772;28;20385;-78
2023/01/31 09:35:08;;;;;;;;;;;5.00;99.90;;;;;;4991228;28;20383;-80
2023/01/31 09:37:34;;;;;;;;;;;4.80;99.90;;;;;;5003143;28;19909;-80
2023/01/31 09:40:00;;;;;;;;;;;4.80;99.90;;;;;;5008084;28;19913;-78
2023/01/31 09:42:28;;;;;;;;;;;4.70;99.90;;;;;;5009976;28;19924;-79
2023/01/31 09:44:54;;;;;;;;;;;4.70;99.90;;;;;;5007423;28;19917;-81
2023/01/31 09:47:23;;;;;;;;;;;4.50;99.90;;;;;;5006683;28;19928;-80
2023/01/31 09:49:51;;;;;;;;;;;4.50;99.90;;;;;;5021129;28;19909;-79
2023/01/31 09:52:17;;;;;;;;;;;4.80;99.90;;;;;;5007067;28;20297;-80
2023/01/31 09:54:43;;;;;;;;;;;4.70;99.90;;;;;;5009308;28;19909;-78
2023/01/31 09:57:27;;;;;;;;;;;4.70;99.90;;;;;;5006625;28;19920;-79
2023/01/31 10:00:12;;;;;;;;;;;4.70;99.90;;;;;;5005466;28;19925;-78
2023/01/31 10:02:46;;;;;;;;;;;4.50;99.90;;;;;;5018373;28;19921;-77
2023/01/31 10:05:28;;;;;;;;;;;4.50;99.90;;;;;;5012105;28;19910;-78
2023/01/31 10:07:54;;;;;;;;;;;4.40;99.90;;;;;;5009847;28;19913;-79
2023/01/31 10:10:27;;;;;;;;;;;4.40;99.90;;;;;;5008423;28;20742;-78
2023/01/31 10:12:56;;;;;;;;;;;4.40;99.90;;;;;;5003776;28;19913;-78
2023/01/31 10:15:35;;;;;;;;;;;4.50;99.90;;;;;;5006308;28;19910;-77
2023/01/31 10:18:04;;;;;;;;;;;4.70;99.90;;;;;;5006780;28;20300;-76
2023/01/31 10:20:33;;;;;;;;;;;4.90;99.90;;;;;;5008442;28;19917;-79
2023/01/31 10:23:03;;;;;;;;;;;5.00;99.90;;;;;;5004374;28;20450;-78
2023/01/31 10:25:35;;;;;;;;;;;5.00;99.90;;;;;;5012243;28;20647;-78
2023/01/31 10:28:05;;;;;;;;;;;5.20;99.90;;;;;;5010587;28;19948;-77
2023/01/31 10:30:51;;;;;;;;;;;5.20;99.90;;;;;;5013295;28;19913;-79
2023/01/31 10:33:28;;;;;;;;;;;5.20;99.90;;;;;;5004814;28;19949;-78
2023/01/31 10:35:55;;;;;;;;;;;5.20;99.90;;;;;;5007161;28;20028;-78
2023/01/31 10:38:26;;;;;;;;;;;5.10;99.90;;;;;;5009543;28;19909;-78
2023/01/31 10:41:17;;;;;;;;;;;5.20;99.90;;;;;;5005981;28;20440;-78
2023/01/31 10:43:51;;;;;;;;;;;5.10;99.90;;;;;;5003542;28;19928;-77
2023/01/31 10:46:16;;;;;;;;;;;5.20;99.90;;;;;;5015504;28;19959;-78
2023/01/31 10:48:43;;;;;;;;;;;5.20;99.90;;;;;;5003132;28;19963;-77
2023/01/31 10:51:12;;;;;;;;;;;5.10;99.90;;;;;;4986210;28;19913;-80
2023/01/31 10:53:54;;;;;;;;;;;5.30;99.90;;;;;;5013324;28;19909;-77
2023/01/31 10:56:28;;;;;;;;;;;5.50;99.90;;;;;;5009108;28;20012;-78
2023/01/31 10:58:54;;;;;;;;;;;5.70;99.90;;;;;;5008392;28;19960;-79
2023/01/31 11:01:20;;;;;;;;;;;5.60;99.90;;;;;;5015986;28;19925;-78
2023/01/31 11:03:49;;;;;;;;;;;5.70;99.90;;;;;;5016638;28;20055;-79
2023/01/31 11:06:15;;;;;;;;;;;5.60;99.90;;;;;;5012500;28;19913;-78
2023/01/31 11:08:44;;;;;;;;;;;5.60;99.90;;;;;;5017757;28;19919;-78
2023/01/31 11:11:11;;;;;;;;;;;5.60;99.90;;;;;;5013938;28;19913;-76
2023/01/31 11:13:37;;;;;;;;;;;5.70;99.90;;;;;;5016539;28;19915;-79
2023/01/31 11:16:05;;;;;;;;;;;5.70;99.90;;;;;;5011722;28;20502;-78
2023/01/31 11:18:33;;;;;;;;;;;5.80;99.90;;;;;;5018788;28;19913;-80
2023/01/31 11:20:59;;;;;;;;;;;5.80;99.90;;;;;;5000623;28;20344;-80
2023/01/31 11:23:26;;;;;;;;;;;5.70;99.90;;;;;;5008749;28;19924;-77
2023/01/31 11:25:53;;;;;;;;;;;5.60;99.90;;;;;;5015000;28;20331;-77
2023/01/31 11:28:34;;;;;;;;;;;5.70;99.90;;;;;;5005675;28;20789;-80
2023/01/31 11:31:00;;;;;;;;;;;5.80;99.90;;;;;;5005801;28;19913;-81
2023/01/31 11:33:40;;;;;;;;;;;6.00;99.90;;;;;;5008111;28;19910;-77
2023/01/31 11:36:07;;;;;;;;;;;5.90;99.90;;;;;;5007874;28;19967;-77
2023/01/31 11:38:33;;;;;;;;;;;5.80;99.90;;;;;;5006955;28;19913;-77
2023/01/31 11:40:58;;;;;;;;;;;5.70;99.90;;;;;;5001592;28;19913;-79
2023/01/31 11:43:25;;;;;;;;;;;5.70;99.90;;;;;;5006442;28;20032;-78
2023/01/31 11:45:58;;;;;;;;;;;5.70;99.90;;;;;;5008107;28;19956;-77
2023/01/31 11:48:28;;;;;;;;;;;6.00;99.90;;;;;;5011735;28;20390;-78
2023/01/31 11:50:57;;;;;;;;;;;6.00;99.90;;;;;;5005021;28;19913;-81
2023/01/31 11:53:29;;;;;;;;;;;6.10;99.90;;;;;;5011727;28;19916;-78
2023/01/31 11:55:58;;;;;;;;;;;6.50;99.90;;;;;;5021397;28;19913;-78
2023/01/31 11:58:28;;;;;;;;;;;6.70;99.90;;;;;;5016878;28;19925;-80
2023/01/31 12:00:55;;;;;;;;;;;7.00;99.90;;;;;;5016641;28;19932;-80
2023/01/31 12:03:23;;;;;;;;;;;7.00;99.90;;;;;;5016706;28;19929;-76
2023/01/31 12:05:50;;;;;;;;;;;7.10;99.90;;;;;;5017022;28;19909;-81
2023/01/31 12:08:34;;;;;;;;;;;7.10;99.90;;;;;;5014172;28;19919;-78
2023/01/31 12:11:03;;;;;;;;;;;6.80;99.90;;;;;;5007002;28;19913;-78
2023/01/31 12:13:28;;;;;;;;;;;6.60;99.90;;;;;;5006658;28;20416;-77
2023/01/31 12:16:00;;;;;;;;;;;6.30;99.90;;;;;;5009904;28;19909;-80
2023/01/31 12:18:37;;;;;;;;;;;6.20;99.90;;;;;;5006766;28;19917;-76
2023/01/31 12:21:21;;;;;;;;;;;6.20;99.90;;;;;;5004973;28;20593;-77
2023/01/31 12:23:47;;;;;;;;;;;6.40;99.90;;;;;;5008398;28;19924;-78
2023/01/31 12:26:17;;;;;;;;;;;6.20;99.90;;;;;;5009408;28;19913;-77
2023/01/31 12:28:49;;;;;;;;;;;6.20;99.90;;;;;;5008789;28;19913;-78
2023/01/31 12:31:14;;;;;;;;;;;6.00;99.90;;;;;;5005997;28;19913;-80
2023/01/31 12:34:00;;;;;;;;;;;6.10;99.90;;;;;;5017816;28;19909;-78
2023/01/31 12:36:45;;;;;;;;;;;6.00;99.90;;;;;;5004671;28;19941;-77
2023/01/31 12:39:16;;;;;;;;;;;6.10;99.90;;;;;;5014822;28;19909;-77
2023/01/31 12:41:47;;;;;;;;;;;6.00;99.90;;;;;;5017931;28;19913;-77
2023/01/31 12:44:19;;;;;;;;;;;5.90;99.90;;;;;;5017111;28;20032;-76
2023/01/31 12:47:03;;;;;;;;;;;6.00;99.90;;;;;;5011630;28;19960;-79
2023/01/31 12:49:35;;;;;;;;;;;6.10;99.90;;;;;;5016639;28;20042;-81
2023/01/31 12:52:03;;;;;;;;;;;6.30;99.90;;;;;;5010271;28;19909;-77
2023/01/31 12:54:28;;;;;;;;;;;6.20;99.90;;;;;;5006882;28;19909;-78
2023/01/31 12:57:16;;;;;;;;;;;6.10;99.90;;;;;;5007839;28;20294;-77
2023/01/31 12:59:45;;;;;;;;;;;6.20;99.90;;;;;;5006221;28;19975;-78
2023/01/31 13:02:15;;;;;;;;;;;6.30;99.90;;;;;;4994975;28;20428;-78
2023/01/31 13:04:59;;;;;;;;;;;6.30;99.90;;;;;;5006781;28;19920;-77
2023/01/31 13:07:31;;;;;;;;;;;6.10;99.90;;;;;;5005615;28;19909;-79
2023/01/31 13:09:58;;;;;;;;;;;6.10;99.90;;;;;;5009438;28;19956;-77
2023/01/31 13:12:26;;;;;;;;;;;6.20;99.90;;;;;;5018151;28;19917;-78
2023/01/31 13:15:06;;;;;;;;;;;6.20;99.90;;;;;;5015161;28;20380;-77
2023/01/31 13:17:33;;;;;;;;;;;6.20;99.90;;;;;;5011405;28;19914;-76
2023/01/31 13:20:11;;;;;;;;;;;6.40;99.90;;;;;;5015424;28;19913;-79
2023/01/31 13:22:50;;;;;;;;;;;6.70;99.90;;;;;;5005713;28;19921;-77
2023/01/31 13:25:30;;;;;;;;;;;6.80;99.90;;;;;;5009949;28;19971;-79
2023/01/31 13:27:55;;;;;;;;;;;6.80;99.90;;;;;;5015701;28;19913;-77
2023/01/31 13:30:22;;;;;;;;;;;7.00;99.90;;;;;;5015776;28;19909;-78
2023/01/31 13:32:49;;;;;;;;;;;6.90;99.90;;;;;;5015008;28;19908;-80
2023/01/31 13:35:15;;;;;;;;;;;6.90;99.90;;;;;;5019243;28;19908;-78
2023/01/31 13:37:42;;;;;;;;;;;6.80;99.90;;;;;;5017671;28;19916;-77
2023/01/31 13:40:28;;;;;;;;;;;6.70;99.90;;;;;;5018409;28;19935;-77
2023/01/31 13:42:57;;;;;;;;;;;6.70;99.90;;;;;;5018731;28;19981;-79
2023/01/31 13:45:28;;;;;;;;;;;6.70;99.90;;;;;;5009874;28;19909;-76
2023/01/31 13:47:59;;;;;;;;;;;6.70;99.90;;;;;;5013099;28;19913;-78
2023/01/31 13:50:37;;;;;;;;;;;6.50;99.90;;;;;;5010486;28;19960;-80
2023/01/31 13:53:05;;;;;;;;;;;6.40;99.90;;;;;;5007248;28;19910;-77
2023/01/31 13:55:35;;;;;;;;;;;6.40;99.90;;;;;;5006350;28;20004;-78
2023/01/31 13:58:05;;;;;;;;;;;6.60;99.90;;;;;;5006059;28;19916;-78
2023/01/31 14:00:42;;;;;;;;;;;6.50;99.90;;;;;;5006854;28;19929;-77
2023/01/31 14:03:12;;;;;;;;;;;6.40;99.90;;;;;;5011037;28;19914;-77
2023/01/31 14:05:43;;;;;;;;;;;6.50;99.90;;;;;;5005552;28;19917;-76
2023/01/31 14:08:24;;;;;;;;;;;6.40;99.90;;;;;;5006777;28;19936;-78
2023/01/31 14:10:50;;;;;;;;;;;6.50;99.90;;;;;;5017422;28;20016;-77
2023/01/31 14:13:22;;;;;;;;;;;6.60;99.90;;;;;;5016342;28;19915;-77
2023/01/31 14:15:49;;;;;;;;;;;6.70;99.90;;;;;;5012900;28;19909;-78
2023/01/31 14:18:33;;;;;;;;;;;6.70;99.90;;;;;;5008967;28;19913;-79
2023/01/31 14:21:19;;;;;;;;;;;6.80;99.90;;;;;;5005417;28;20436;-78
2023/01/31 14:23:46;;;;;;;;;;;6.50;99.90;;;;;;5008412;28;19920;-77
2023/01/31 14:26:30;;;;;;;;;;;6.40;99.90;;;;;;5019820;28;19909;-77
2023/01/31 14:28:56;;;;;;;;;;;6.40;99.90;;;;;;5012669;28;19962;-78
2023/01/31 14:31:22;;;;;;;;;;;6.30;99.90;;;;;;5016249;28;19921;-79
2023/01/31 14:33:49;;;;;;;;;;;6.50;99.90;;;;;;5009997;28;19944;-77
2023/01/31 14:36:20;;;;;;;;;;;6.70;99.90;;;;;;5015821;28;19920;-77
2023/01/31 14:38:55;;;;;;;;;;;6.70;99.90;;;;;;5012068;28;20417;-77
2023/01/31 14:41:39;;;;;;;;;;;6.80;99.90;;;;;;5007378;28;20655;-77
2023/01/31 14:44:05;;;;;;;;;;;6.90;99.90;;;;;;5022864;28;19913;-77
2023/01/31 14:46:30;;;;;;;;;;;6.90;99.90;;;;;;5016369;28;19913;-77